Dodson, Oregon
Current Conditions -  °F | °C
As of 2:39 PM on Friday 28 Nov 2014 (Local Time) from K4S2 Reporting Station
Broken Clouds Broken Clouds  
Wind Chill: 54°   Ceiling: 5000
Heat Index: 54°   Visibility: 10mi
Dew Point: 50°   Wind: 0mph
Humidity: 88%   Direction: NA
Pressure: 29.42"   Gusts: NA
Location:  45.6281°N, 121.806°W
Report Text: K4S2 282239Z AUTO 00000KT 10SM SCT033 SCT044 BKN050 12/10 A2942 RMK AO2 P0002 SLP977 T01200100
Loading
Personal Weather Stations






























Interactive Weather Map New forecast layout! Learn more

10-Day Weather Forecast

Advertisements
Track Severe Weather on mobile